Time;durP1;ratioP1;P1;durP2;ratioP2;P2;SDS_P1;SDS_P2;PMS_P1;PMS_P2;Temp;Humidity;BMP_temperature;BMP_pressure;BME280_temperature;BME280_humidity;BME280_pressure;Samples;Min_cycle;Max_cycle;Signal;HPM_P1;HPM_P2
2023/08/19 00:01:33;;;;;;;1999.90;999.90;;;17.60;82.40;;;;;;5086180;28;20428;-73
2023/08/19 00:04:00;;;;;;;1999.90;999.90;;;17.50;82.10;;;;;;5083541;28;20557;-74
2023/08/19 00:06:39;;;;;;;1999.90;999.90;;;17.50;82.20;;;;;;5083193;28;20028;-74
2023/08/19 00:09:08;;;;;;;1999.90;999.90;;;17.40;82.10;;;;;;5081069;28;20493;-74
2023/08/19 00:11:38;;;;;;;1999.90;999.90;;;17.40;82.30;;;;;;5082194;28;20108;-73
2023/08/19 00:14:05;;;;;;;1999.90;999.90;;;17.40;82.60;;;;;;5086160;28;20025;-73
2023/08/19 00:16:32;;;;;;;1999.90;999.90;;;17.30;82.70;;;;;;5084809;28;20039;-73
2023/08/19 00:18:58;;;;;;;1999.90;999.90;;;17.20;83.10;;;;;;5079683;28;20036;-73
2023/08/19 00:21:24;;;;;;;1999.90;999.90;;;17.20;83.50;;;;;;5079258;28;20440;-73
2023/08/19 00:23:50;;;;;;;1999.90;999.90;;;17.10;84.30;;;;;;5084692;28;20024;-73
2023/08/19 00:26:16;;;;;;;1999.90;999.90;;;17.10;83.60;;;;;;5084117;28;20024;-73
2023/08/19 00:28:42;;;;;;;1999.90;999.90;;;16.90;83.50;;;;;;5083189;28;20040;-74
2023/08/19 00:31:08;;;;;;;1999.90;999.90;;;16.80;85.30;;;;;;5084286;28;20107;-74
2023/08/19 00:33:34;;;;;;;1999.90;999.90;;;16.80;84.70;;;;;;5081794;28;20439;-74
2023/08/19 00:36:00;;;;;;;1999.90;999.90;;;16.80;85.10;;;;;;5083789;28;20604;-73
2023/08/19 00:38:26;;;;;;;1999.90;999.90;;;16.80;85.10;;;;;;5086697;28;20115;-73
2023/08/19 00:40:52;;;;;;;1999.90;999.90;;;16.80;85.40;;;;;;5082776;28;20067;-74
2023/08/19 00:43:17;;;;;;;1999.90;999.90;;;16.80;85.30;;;;;;5086083;28;20043;-74
2023/08/19 00:45:46;;;;;;;1999.90;999.90;;;16.70;85.70;;;;;;5087195;28;20032;-73
2023/08/19 00:48:16;;;;;;;1999.90;999.90;;;16.70;85.50;;;;;;5082671;28;20032;-73
2023/08/19 00:50:44;;;;;;;1999.90;999.90;;;16.60;85.80;;;;;;5087117;28;20071;-74
2023/08/19 00:53:12;;;;;;;1999.90;999.90;;;16.60;85.90;;;;;;5088968;28;20101;-73
2023/08/19 00:55:37;;;;;;;1999.90;999.90;;;16.70;86.30;;;;;;5086544;28;20024;-73
2023/08/19 00:58:03;;;;;;;1999.90;999.90;;;16.70;85.80;;;;;;5087657;28;20075;-74
2023/08/19 01:00:31;;;;;;;1999.90;999.90;;;16.60;85.90;;;;;;5087507;28;20489;-74
2023/08/19 01:02:57;;;;;;;1999.90;999.90;;;16.60;85.90;;;;;;5086965;28;20032;-73
2023/08/19 01:05:53;;;;;;;1999.90;999.90;;;16.60;85.90;;;;;;5088256;28;20039;-73
2023/08/19 01:08:26;;;;;;;1999.90;999.90;;;16.60;86.00;;;;;;5085793;28;20036;-73
2023/08/19 01:11:00;;;;;;;1999.90;999.90;;;16.50;86.10;;;;;;5086140;28;20040;-73
2023/08/19 01:13:36;;;;;;;1999.90;999.90;;;16.50;86.10;;;;;;5090731;28;20134;-74
2023/08/19 01:16:29;;;;;;;1999.90;999.90;;;16.40;86.70;;;;;;5087112;28;20024;-74
2023/08/19 01:18:56;;;;;;;1999.90;999.90;;;16.40;86.80;;;;;;5084057;28;20036;-73
2023/08/19 01:21:22;;;;;;;1999.90;999.90;;;16.50;86.50;;;;;;5088695;28;20024;-73
2023/08/19 01:23:51;;;;;;;1999.90;999.90;;;16.40;86.20;;;;;;5086875;28;20119;-73
2023/08/19 01:26:17;;;;;;;1999.90;999.90;;;16.40;86.60;;;;;;5086390;28;20028;-73
2023/08/19 01:28:43;;;;;;;1999.90;999.90;;;16.30;86.70;;;;;;5084159;28;20035;-74
2023/08/19 01:31:09;;;;;;;1999.90;999.90;;;16.50;87.10;;;;;;5088511;28;20528;-73
2023/08/19 01:33:35;;;;;;;1999.90;999.90;;;16.40;87.10;;;;;;5087611;28;20558;-73
2023/08/19 01:36:19;;;;;;;1999.90;999.90;;;16.50;87.90;;;;;;5087515;28;20043;-73
2023/08/19 01:39:03;;;;;;;1999.90;999.90;;;16.50;87.90;;;;;;5085229;28;20310;-74
2023/08/19 01:41:31;;;;;;;1999.90;999.90;;;16.50;89.20;;;;;;5088111;28;20051;-74
2023/08/19 01:43:58;;;;;;;1999.90;999.90;;;16.60;89.20;;;;;;5084479;28;20059;-73
2023/08/19 01:46:25;;;;;;;1999.90;999.90;;;16.60;89.30;;;;;;5087914;28;20062;-74
2023/08/19 01:48:50;;;;;;;1999.90;999.90;;;16.60;88.70;;;;;;5082621;28;20024;-74
2023/08/19 01:51:16;;;;;;;1999.90;999.90;;;16.60;88.80;;;;;;5084653;28;20398;-74
2023/08/19 01:53:42;;;;;;;1999.90;999.90;;;16.50;88.60;;;;;;5088189;28;20042;-73
2023/08/19 01:56:07;;;;;;;1999.90;999.90;;;16.40;88.20;;;;;;5086744;28;20035;-74
2023/08/19 01:58:33;;;;;;;1999.90;999.90;;;16.20;88.40;;;;;;5084641;28;20060;-73
2023/08/19 02:00:59;;;;;;;1999.90;999.90;;;16.20;88.20;;;;;;5084497;28;20545;-73
2023/08/19 02:03:24;;;;;;;1999.90;999.90;;;16.00;88.70;;;;;;5087629;28;20115;-74
2023/08/19 02:05:50;;;;;;;1999.90;999.90;;;16.10;88.70;;;;;;5085469;28;20036;-73
2023/08/19 02:08:16;;;;;;;1999.90;999.90;;;16.10;88.50;;;;;;5086078;28;20040;-73
2023/08/19 02:10:42;;;;;;;1999.90;999.90;;;16.00;88.50;;;;;;5084399;28;20031;-73
2023/08/19 02:13:08;;;;;;;1999.90;999.90;;;15.90;88.40;;;;;;5083606;28;20037;-73
2023/08/19 02:15:34;;;;;;;1999.90;999.90;;;16.00;88.60;;;;;;5086598;28;20042;-74
2023/08/19 02:18:00;;;;;;;1999.90;999.90;;;16.00;88.40;;;;;;5086417;28;20052;-74
2023/08/19 02:20:26;;;;;;;1999.90;999.90;;;16.00;88.30;;;;;;5085351;28;20096;-73
2023/08/19 02:22:52;;;;;;;1999.90;999.90;;;16.00;88.40;;;;;;5085628;28;20111;-73
2023/08/19 02:25:18;;;;;;;1999.90;999.90;;;16.00;88.70;;;;;;5084132;28;20082;-73
2023/08/19 02:27:44;;;;;;;1999.90;999.90;;;16.00;88.30;;;;;;5082350;28;20495;-74
2023/08/19 02:30:10;;;;;;;1999.90;999.90;;;16.00;88.50;;;;;;5084780;28;20043;-73
2023/08/19 02:32:38;;;;;;;1999.90;999.90;;;15.90;88.70;;;;;;5086180;28;20024;-73
2023/08/19 02:35:04;;;;;;;1999.90;999.90;;;16.00;88.50;;;;;;5085478;28;20036;-73
2023/08/19 02:37:29;;;;;;;1999.90;999.90;;;16.00;88.50;;;;;;5088578;28;20035;-73
2023/08/19 02:39:55;;;;;;;1999.90;999.90;;;16.00;88.50;;;;;;5084795;28;20911;-73
2023/08/19 02:42:21;;;;;;;1999.90;999.90;;;16.10;88.20;;;;;;5087568;28;20431;-74
2023/08/19 02:44:46;;;;;;;1999.90;999.90;;;16.10;88.20;;;;;;5082966;28;20501;-73
2023/08/19 02:47:12;;;;;;;1999.90;999.90;;;16.00;88.40;;;;;;5084902;28;20549;-73
2023/08/19 02:49:38;;;;;;;1999.90;999.90;;;16.10;89.60;;;;;;5086777;28;20028;-74
2023/08/19 02:52:05;;;;;;;1999.90;999.90;;;16.10;89.20;;;;;;5086204;28;20043;-73
2023/08/19 02:54:30;;;;;;;1999.90;999.90;;;16.10;88.70;;;;;;5086700;28;20036;-73
2023/08/19 02:56:56;;;;;;;1999.90;999.90;;;16.10;89.60;;;;;;5085232;28;20039;-73
2023/08/19 02:59:22;;;;;;;1999.90;999.90;;;16.10;89.40;;;;;;5089751;28;20028;-72
2023/08/19 03:01:47;;;;;;;1999.90;999.90;;;16.10;89.90;;;;;;5085877;28;20493;-72
2023/08/19 03:04:14;;;;;;;1999.90;999.90;;;16.00;89.60;;;;;;5086653;28;20036;-73
2023/08/19 03:06:41;;;;;;;1999.90;999.90;;;16.00;90.00;;;;;;5086229;28;20516;-72
2023/08/19 03:09:07;;;;;;;1999.90;999.90;;;15.90;90.10;;;;;;5088288;28;20036;-72
2023/08/19 03:11:33;;;;;;;1999.90;999.90;;;15.90;90.00;;;;;;5088806;28;20412;-72
2023/08/19 03:13:59;;;;;;;1999.90;999.90;;;15.90;89.50;;;;;;5090516;28;20040;-72
2023/08/19 03:16:25;;;;;;;1999.90;999.90;;;15.80;89.10;;;;;;5087734;28;20035;-73
2023/08/19 03:18:50;;;;;;;1999.90;999.90;;;15.80;89.20;;;;;;5078729;28;20570;-73
2023/08/19 03:21:16;;;;;;;1999.90;999.90;;;15.70;89.10;;;;;;5078879;28;20491;-74
2023/08/19 03:23:42;;;;;;;1999.90;999.90;;;15.70;88.90;;;;;;5081799;28;20028;-73
2023/08/19 03:26:07;;;;;;;1999.90;999.90;;;15.50;89.20;;;;;;5080953;28;20044;-73
2023/08/19 03:28:33;;;;;;;1999.90;999.90;;;15.50;89.10;;;;;;5078482;28;20036;-73
2023/08/19 03:30:59;;;;;;;1999.90;999.90;;;15.50;89.00;;;;;;5083666;28;20035;-73
2023/08/19 03:33:24;;;;;;;1999.90;999.90;;;15.40;88.80;;;;;;5067311;28;20039;-74
2023/08/19 03:35:50;;;;;;;1999.90;999.90;;;15.40;89.00;;;;;;5079336;28;20035;-73
2023/08/19 03:38:16;;;;;;;1999.90;999.90;;;15.40;89.10;;;;;;5080966;28;20418;-73
2023/08/19 03:40:42;;;;;;;1999.90;999.90;;;15.30;89.50;;;;;;5082027;28;20029;-73
2023/08/19 03:43:09;;;;;;;1999.90;999.90;;;15.30;90.00;;;;;;5076682;28;20179;-73
2023/08/19 03:45:35;;;;;;;1999.90;999.90;;;15.40;89.80;;;;;;5084227;28;20356;-73
2023/08/19 03:48:01;;;;;;;1999.90;999.90;;;15.40;89.90;;;;;;5084128;28;20024;-73
2023/08/19 03:50:26;;;;;;;1999.90;999.90;;;15.40;89.70;;;;;;5082652;28;20028;-73
2023/08/19 03:52:52;;;;;;;1999.90;999.90;;;15.30;89.90;;;;;;5081439;28;20024;-73
2023/08/19 03:55:18;;;;;;;1999.90;999.90;;;15.30;90.00;;;;;;5087217;28;20036;-73
2023/08/19 03:57:43;;;;;;;1999.90;999.90;;;15.30;90.10;;;;;;5084568;28;20474;-73
2023/08/19 04:00:10;;;;;;;1999.90;999.90;;;15.40;90.20;;;;;;5085408;28;20040;-73
2023/08/19 04:02:36;;;;;;;1999.90;999.90;;;15.40;90.20;;;;;;5079626;28;20040;-73
2023/08/19 04:05:04;;;;;;;1999.90;999.90;;;15.50;90.20;;;;;;5082969;28;20040;-73
2023/08/19 04:07:30;;;;;;;1999.90;999.90;;;15.50;90.10;;;;;;5084011;28;20717;-73
2023/08/19 04:09:57;;;;;;;1999.90;999.90;;;15.50;90.20;;;;;;5083976;28;20024;-73
2023/08/19 04:12:24;;;;;;;1999.90;999.90;;;15.50;90.10;;;;;;5087350;28;20443;-73
2023/08/19 04:14:50;;;;;;;1999.90;999.90;;;15.60;89.80;;;;;;5088892;28;20158;-73
2023/08/19 04:17:16;;;;;;;1999.90;999.90;;;15.50;89.80;;;;;;5086301;28;20660;-73
2023/08/19 04:19:43;;;;;;;1999.90;999.90;;;15.60;89.60;;;;;;5085118;28;20049;-73
2023/08/19 04:22:16;;;;;;;1999.90;999.90;;;15.60;89.00;;;;;;5086392;28;20358;-73
2023/08/19 04:24:42;;;;;;;1999.90;999.90;;;15.50;89.60;;;;;;5088686;28;20386;-73
2023/08/19 04:27:08;;;;;;;1999.90;999.90;;;15.60;89.80;;;;;;5085475;28;20040;-72
2023/08/19 04:29:34;;;;;;;1999.90;999.90;;;15.60;90.20;;;;;;5082802;28;20047;-73
2023/08/19 04:32:03;;;;;;;1999.90;999.90;;;15.60;90.00;;;;;;5090479;28;20059;-73
2023/08/19 04:34:30;;;;;;;1999.90;999.90;;;15.60;90.30;;;;;;5086327;28;20040;-73
2023/08/19 04:36:55;;;;;;;1999.90;999.90;;;15.60;90.60;;;;;;5087042;28;20090;-73
2023/08/19 04:39:22;;;;;;;1999.90;999.90;;;15.70;90.50;;;;;;5089314;28;20032;-73
2023/08/19 04:41:48;;;;;;;1999.90;999.90;;;15.70;90.20;;;;;;5087455;28;20458;-73
2023/08/19 04:44:13;;;;;;;1999.90;999.90;;;15.70;90.00;;;;;;5080442;28;20123;-73
2023/08/19 04:46:39;;;;;;;1999.90;999.90;;;15.70;90.00;;;;;;5084659;28;20032;-73
2023/08/19 04:49:05;;;;;;;1999.90;999.90;;;15.80;90.40;;;;;;5088565;28;20042;-73
2023/08/19 04:51:32;;;;;;;1999.90;999.90;;;15.80;90.20;;;;;;5069983;28;20483;-73
2023/08/19 04:53:58;;;;;;;1999.90;999.90;;;15.80;90.00;;;;;;5088118;28;20028;-73
2023/08/19 04:56:23;;;;;;;1999.90;999.90;;;15.90;90.20;;;;;;5083409;28;20136;-73
2023/08/19 04:58:49;;;;;;;1999.90;999.90;;;15.90;90.40;;;;;;5085805;28;20665;-72
2023/08/19 05:01:15;;;;;;;1999.90;999.90;;;15.90;90.50;;;;;;5082780;28;20052;-73
2023/08/19 05:03:40;;;;;;;1999.90;999.90;;;15.90;90.60;;;;;;5079478;28;20067;-76
2023/08/19 05:06:07;;;;;;;1999.90;999.90;;;16.00;90.80;;;;;;5084080;28;20078;-73
2023/08/19 05:08:32;;;;;;;1999.90;999.90;;;16.00;90.90;;;;;;5084761;28;20462;-73
2023/08/19 05:10:58;;;;;;;1999.90;999.90;;;16.10;91.00;;;;;;5086802;28;20056;-73
2023/08/19 05:13:24;;;;;;;1999.90;999.90;;;16.20;91.10;;;;;;5094138;28;20036;-73
2023/08/19 05:15:49;;;;;;;1999.90;999.90;;;16.20;91.10;;;;;;5090034;28;20145;-73
2023/08/19 05:18:15;;;;;;;1999.90;999.90;;;16.30;91.10;;;;;;5087427;28;20051;-73
2023/08/19 05:20:41;;;;;;;1999.90;999.90;;;16.40;91.00;;;;;;5090297;28;20028;-73
2023/08/19 05:23:07;;;;;;;1999.90;999.90;;;16.50;91.00;;;;;;5088377;28;20028;-73
2023/08/19 05:25:32;;;;;;;1999.90;999.90;;;16.60;91.00;;;;;;5090264;28;20032;-72
2023/08/19 05:27:58;;;;;;;1999.90;999.90;;;16.70;90.90;;;;;;5083200;28;20102;-73
2023/08/19 05:30:24;;;;;;;1999.90;999.90;;;16.80;90.70;;;;;;5085004;28;20040;-73
2023/08/19 05:32:50;;;;;;;1999.90;999.90;;;16.90;90.60;;;;;;5088378;28;20029;-73
2023/08/19 05:35:16;;;;;;;1999.90;999.90;;;17.00;90.40;;;;;;5085274;28;20135;-73
2023/08/19 05:37:42;;;;;;;1999.90;999.90;;;17.10;90.40;;;;;;5086610;28;20481;-75
2023/08/19 05:40:08;;;;;;;1999.90;999.90;;;17.20;90.30;;;;;;5087108;28;20136;-76
2023/08/19 05:42:34;;;;;;;1999.90;999.90;;;17.30;90.30;;;;;;5080099;28;20424;-79
2023/08/19 05:44:59;;;;;;;1999.90;999.90;;;17.50;90.10;;;;;;5084374;28;20050;-75
2023/08/19 05:47:25;;;;;;;1999.90;999.90;;;17.60;89.90;;;;;;5079089;28;20032;-81
2023/08/19 05:49:51;;;;;;;1999.90;999.90;;;17.80;89.30;;;;;;5087481;28;20035;-83
2023/08/19 05:52:17;;;;;;;1999.90;999.90;;;17.90;88.60;;;;;;5081431;28;20051;-79
2023/08/19 05:54:43;;;;;;;1999.90;999.90;;;18.00;87.80;;;;;;5071091;28;20440;-82
2023/08/19 05:57:10;;;;;;;1999.90;999.90;;;18.10;87.50;;;;;;5080631;28;20063;-81
2023/08/19 05:59:35;;;;;;;1999.90;999.90;;;18.10;87.50;;;;;;5063373;28;20043;-84
2023/08/19 06:02:01;;;;;;;1999.90;999.90;;;18.20;88.20;;;;;;5081405;28;20036;-80
2023/08/19 06:04:26;;;;;;;1999.90;999.90;;;18.30;87.90;;;;;;5085778;28;20047;-76
2023/08/19 06:06:52;;;;;;;1999.90;999.90;;;18.40;87.60;;;;;;5082327;28;20032;-74
2023/08/19 06:09:18;;;;;;;1999.90;999.90;;;18.50;87.40;;;;;;5078077;28;20036;-76
2023/08/19 06:11:49;;;;;;;1999.90;999.90;;;18.60;86.30;;;;;;5082292;28;20166;-80
2023/08/19 06:14:15;;;;;;;1999.90;999.90;;;18.70;84.90;;;;;;5077352;28;20039;-77
2023/08/19 06:16:42;;;;;;;1999.90;999.90;;;18.70;83.90;;;;;;5075197;28;20021;-76
2023/08/19 06:19:07;;;;;;;1999.90;999.90;;;18.80;83.80;;;;;;5086289;28;20037;-75
2023/08/19 06:21:33;;;;;;;1999.90;999.90;;;19.00;83.80;;;;;;5084252;28;20024;-75
2023/08/19 06:23:59;;;;;;;1999.90;999.90;;;19.20;83.50;;;;;;5074402;28;20024;-75
2023/08/19 06:26:28;;;;;;;1999.90;999.90;;;19.40;83.40;;;;;;5088885;28;20036;-75
2023/08/19 06:28:53;;;;;;;1999.90;999.90;;;19.50;82.80;;;;;;5084912;28;20036;-75
2023/08/19 06:31:19;;;;;;;1999.90;999.90;;;19.50;80.10;;;;;;5091776;28;20047;-75
2023/08/19 06:33:45;;;;;;;1999.90;999.90;;;19.60;80.00;;;;;;5089677;28;20039;-75
2023/08/19 06:36:14;;;;;;;1999.90;999.90;;;19.60;79.80;;;;;;5072355;28;20028;-75
2023/08/19 06:38:46;;;;;;;1999.90;999.90;;;19.70;79.30;;;;;;5083515;28;20052;-75
2023/08/19 06:41:13;;;;;;;1999.90;999.90;;;19.90;78.30;;;;;;5087892;28;20035;-75
2023/08/19 06:43:39;;;;;;;1999.90;999.90;;;20.00;78.00;;;;;;5087499;28;20028;-73
2023/08/19 06:46:06;;;;;;;1999.90;999.90;;;20.10;77.70;;;;;;5084717;28;20028;-75
2023/08/19 06:48:34;;;;;;;1999.90;999.90;;;20.20;77.50;;;;;;5087102;28;20023;-76
2023/08/19 06:51:01;;;;;;;1999.90;999.90;;;20.20;76.30;;;;;;5086946;28;20031;-75
2023/08/19 06:53:27;;;;;;;1999.90;999.90;;;20.40;77.10;;;;;;5087465;28;20039;-76
2023/08/19 06:56:33;;;;;;;1999.90;999.90;;;20.40;75.30;;;;;;5089130;28;20032;-75
2023/08/19 06:59:04;;;;;;;1999.90;999.90;;;20.60;74.70;;;;;;5085873;28;20024;-75
2023/08/19 07:01:31;;;;;;;1999.90;999.90;;;20.70;74.60;;;;;;5089708;28;20039;-75
2023/08/19 07:03:57;;;;;;;1999.90;999.90;;;20.80;73.80;;;;;;5089291;28;20039;-73
2023/08/19 07:06:26;;;;;;;1999.90;999.90;;;21.00;74.50;;;;;;5090228;28;20443;-73
2023/08/19 07:08:51;;;;;;;1999.90;999.90;;;21.00;70.80;;;;;;5090431;28;20047;-73
2023/08/19 07:11:18;;;;;;;1999.90;999.90;;;21.10;66.00;;;;;;5089101;28;20031;-73
2023/08/19 07:13:44;;;;;;;1999.90;999.90;;;21.20;66.70;;;;;;5088403;28;20171;-75
2023/08/19 07:16:16;;;;;;;1999.90;999.90;;;21.20;66.00;;;;;;5087538;28;20123;-75
2023/08/19 07:18:47;;;;;;;1999.90;999.90;;;21.40;66.70;;;;;;5092344;28;20030;-75
2023/08/19 07:21:15;;;;;;;1999.90;999.90;;;21.60;64.10;;;;;;5088600;28;20039;-73
2023/08/19 07:23:43;;;;;;;1999.90;999.90;;;21.70;64.80;;;;;;5089520;28;20039;-73
2023/08/19 07:26:09;;;;;;;1999.90;999.90;;;21.90;65.10;;;;;;5084730;28;20039;-75
2023/08/19 07:28:35;;;;;;;1999.90;999.90;;;21.90;65.40;;;;;;5088651;28;20040;-73
2023/08/19 07:31:03;;;;;;;1999.90;999.90;;;22.00;65.20;;;;;;5086584;28;20493;-73
2023/08/19 07:33:29;;;;;;;1999.90;999.90;;;22.10;61.80;;;;;;5071944;28;20036;-75
2023/08/19 07:35:55;;;;;;;1999.90;999.90;;;22.20;63.10;;;;;;5084766;28;20036;-73
2023/08/19 07:38:21;;;;;;;1999.90;999.90;;;22.30;63.80;;;;;;5085395;28;20497;-73
2023/08/19 07:40:47;;;;;;;1999.90;999.90;;;22.50;62.10;;;;;;5086908;28;20093;-73
2023/08/19 07:43:12;;;;;;;1999.90;999.90;;;22.60;64.60;;;;;;5080351;28;20106;-73
2023/08/19 07:45:39;;;;;;;1999.90;999.90;;;22.70;62.00;;;;;;5085750;28;20028;-75
2023/08/19 07:48:05;;;;;;;1999.90;999.90;;;22.80;61.30;;;;;;5080079;28;20039;-75
2023/08/19 07:50:31;;;;;;;1999.90;999.90;;;22.80;61.80;;;;;;5089648;28;20036;-73
2023/08/19 07:52:57;;;;;;;1999.90;999.90;;;23.10;61.80;;;;;;5084031;28;20056;-73
2023/08/19 07:55:23;;;;;;;1999.90;999.90;;;23.00;57.70;;;;;;5086514;28;20032;-76
2023/08/19 07:57:49;;;;;;;1999.90;999.90;;;23.00;58.10;;;;;;5083856;28;20031;-73
2023/08/19 08:00:15;;;;;;;1999.90;999.90;;;23.10;58.60;;;;;;5084741;28;20024;-74
2023/08/19 08:02:41;;;;;;;1999.90;999.90;;;23.40;60.70;;;;;;5086457;28;20100;-73
2023/08/19 08:05:07;;;;;;;1999.90;999.90;;;23.50;57.60;;;;;;5073843;28;20570;-73
2023/08/19 08:07:33;;;;;;;1999.90;999.90;;;23.70;62.10;;;;;;5076702;28;20044;-75
2023/08/19 08:09:58;;;;;;;1999.90;999.90;;;23.70;56.70;;;;;;5085766;28;20510;-75
2023/08/19 08:12:24;;;;;;;1999.90;999.90;;;23.70;59.30;;;;;;5086796;28;20032;-75
2023/08/19 08:14:50;;;;;;;1999.90;999.90;;;23.90;58.40;;;;;;5089049;28;20082;-75
2023/08/19 08:17:15;;;;;;;1999.90;999.90;;;24.00;55.50;;;;;;5089135;28;20115;-75
2023/08/19 08:19:41;;;;;;;1999.90;999.90;;;24.00;58.30;;;;;;5089519;28;20035;-75
2023/08/19 08:22:07;;;;;;;1999.90;999.90;;;24.20;57.90;;;;;;5084657;28;20059;-75
2023/08/19 08:24:33;;;;;;;1999.90;999.90;;;24.50;55.60;;;;;;5081008;28;20059;-75
2023/08/19 08:26:59;;;;;;;1999.90;999.90;;;24.80;56.00;;;;;;5081862;28;20079;-75
2023/08/19 08:29:25;;;;;;;1999.90;999.90;;;24.80;55.10;;;;;;5084274;28;20486;-76
2023/08/19 08:31:50;;;;;;;1999.90;999.90;;;24.70;50.60;;;;;;5082759;28;20460;-75
2023/08/19 08:34:16;;;;;;;1999.90;999.90;;;24.80;53.20;;;;;;5086452;28;20040;-75
2023/08/19 08:36:42;;;;;;;1999.90;999.90;;;24.80;52.50;;;;;;5088357;28;20033;-75
2023/08/19 08:39:07;;;;;;;1999.90;999.90;;;25.10;53.20;;;;;;5082861;28;20120;-75
2023/08/19 08:41:39;;;;;;;1999.90;999.90;;;25.20;54.00;;;;;;5088971;28;20036;-75
2023/08/19 08:44:08;;;;;;;1999.90;999.90;;;25.50;53.00;;;;;;5082240;28;20753;-76
2023/08/19 08:46:34;;;;;;;1999.90;999.90;;;25.60;52.70;;;;;;5085202;28;20028;-75
2023/08/19 08:49:01;;;;;;;1999.90;999.90;;;25.80;52.50;;;;;;5086413;28;20032;-75
2023/08/19 08:51:27;;;;;;;1999.90;999.90;;;25.80;54.20;;;;;;5085806;28;20137;-75
2023/08/19 08:53:55;;;;;;;1999.90;999.90;;;25.90;53.40;;;;;;5088174;28;20056;-75
2023/08/19 08:56:25;;;;;;;1999.90;999.90;;;25.90;54.60;;;;;;5086583;28;20107;-75
2023/08/19 08:58:51;;;;;;;1999.90;999.90;;;26.10;50.00;;;;;;5088029;28;20039;-75
2023/08/19 09:01:19;;;;;;;1999.90;999.90;;;26.20;48.80;;;;;;5088041;28;20046;-75
2023/08/19 09:03:46;;;;;;;1999.90;999.90;;;26.40;52.60;;;;;;5090058;28;20109;-75
2023/08/19 09:06:16;;;;;;;1999.90;999.90;;;26.60;47.80;;;;;;5094512;28;20049;-75
2023/08/19 09:08:59;;;;;;;1999.90;999.90;;;26.60;46.80;;;;;;5091606;28;20036;-75
2023/08/19 09:11:28;;;;;;;1999.90;999.90;;;26.60;50.70;;;;;;5091790;28;20031;-75
2023/08/19 09:14:20;;;;;;;1999.90;999.90;;;26.80;46.80;;;;;;5074134;28;20038;-76
2023/08/19 09:16:46;;;;;;;1999.90;999.90;;;27.00;46.90;;;;;;5085313;28;20031;-75
2023/08/19 09:19:13;;;;;;;1999.90;999.90;;;27.50;49.00;;;;;;5089615;28;20028;-76
2023/08/19 09:21:39;;;;;;;1999.90;999.90;;;27.50;46.40;;;;;;5093086;28;20038;-76
2023/08/19 09:24:05;;;;;;;1999.90;999.90;;;27.70;48.80;;;;;;5087336;28;20044;-75
2023/08/19 09:26:31;;;;;;;1999.90;999.90;;;27.80;50.00;;;;;;5091595;28;20533;-75
2023/08/19 09:28:57;;;;;;;1999.90;999.90;;;28.20;47.60;;;;;;5090568;28;20040;-75
2023/08/19 09:31:24;;;;;;;1999.90;999.90;;;27.90;46.00;;;;;;5089296;28;20116;-75
2023/08/19 09:33:52;;;;;;;1999.90;999.90;;;27.80;43.70;;;;;;5091448;28;20036;-75
2023/08/19 09:36:21;;;;;;;1999.90;999.90;;;28.20;45.60;;;;;;5090784;28;20073;-75
2023/08/19 09:38:55;;;;;;;1999.90;999.90;;;28.20;47.10;;;;;;5083307;28;20026;-75
2023/08/19 09:41:27;;;;;;;1999.90;999.90;;;28.60;46.40;;;;;;5088471;28;20498;-75
2023/08/19 09:43:53;;;;;;;1999.90;999.90;;;28.60;41.70;;;;;;5081448;28;20038;-75
2023/08/19 09:46:19;;;;;;;1999.90;999.90;;;28.70;46.90;;;;;;5088968;28;20036;-75
2023/08/19 09:48:57;;;;;;;1999.90;999.90;;;28.90;45.10;;;;;;5082127;28;20039;-75
2023/08/19 09:51:27;;;;;;;1999.90;999.90;;;28.90;43.90;;;;;;5090781;28;20035;-75
2023/08/19 09:53:55;;;;;;;1999.90;999.90;;;28.90;43.10;;;;;;5089991;28;20036;-75
2023/08/19 09:56:26;;;;;;;1999.90;999.90;;;28.80;42.20;;;;;;5087869;28;20036;-75
2023/08/19 09:58:56;;;;;;;1999.90;999.90;;;29.00;45.00;;;;;;5084824;28;20029;-75
2023/08/19 10:01:25;;;;;;;1999.90;999.90;;;29.20;44.40;;;;;;5090883;28;20028;-75
2023/08/19 10:03:51;;;;;;;1999.90;999.90;;;29.10;44.80;;;;;;5087636;28;20028;-75
2023/08/19 10:06:23;;;;;;;1999.90;999.90;;;29.50;40.90;;;;;;5087225;28;20055;-76
2023/08/19 10:08:54;;;;;;;1999.90;999.90;;;29.60;44.90;;;;;;5089114;28;20454;-76
2023/08/19 10:11:21;;;;;;;1999.90;999.90;;;29.90;44.60;;;;;;5082300;28;20027;-75
2023/08/19 10:13:47;;;;;;;1999.90;999.90;;;30.10;43.60;;;;;;5084762;28;20557;-75
2023/08/19 10:16:15;;;;;;;1999.90;999.90;;;30.00;42.70;;;;;;5088916;28;20032;-75
2023/08/19 10:18:45;;;;;;;1999.90;999.90;;;30.20;45.50;;;;;;5087930;28;20039;-75
2023/08/19 10:21:14;;;;;;;1999.90;999.90;;;30.60;41.90;;;;;;5089459;28;20076;-75
2023/08/19 10:23:43;;;;;;;1999.90;999.90;;;30.60;42.70;;;;;;5087362;28;20059;-75
2023/08/19 10:26:09;;;;;;;1999.90;999.90;;;30.40;37.40;;;;;;5089613;28;20024;-75
2023/08/19 10:28:34;;;;;;;1999.90;999.90;;;30.40;42.30;;;;;;5089574;28;20197;-75
2023/08/19 10:31:08;;;;;;;1999.90;999.90;;;30.70;43.30;;;;;;5089087;28;20059;-75
2023/08/19 10:33:41;;;;;;;1999.90;999.90;;;30.80;42.80;;;;;;5089889;28;20051;-75
2023/08/19 10:36:08;;;;;;;1999.90;999.90;;;30.80;38.60;;;;;;5080388;28;20112;-75
2023/08/19 10:38:53;;;;;;;1999.90;999.90;;;31.10;40.10;;;;;;5086130;28;20118;-75
2023/08/19 10:41:35;;;;;;;1999.90;999.90;;;31.30;38.20;;;;;;5087432;28;20503;-75
2023/08/19 10:44:07;;;;;;;1999.90;999.90;;;31.50;36.90;;;;;;5085872;28;20135;-75
2023/08/19 10:46:36;;;;;;;1999.90;999.90;;;31.30;36.10;;;;;;5085808;28;20064;-75
2023/08/19 10:49:07;;;;;;;1999.90;999.90;;;31.20;37.10;;;;;;5080886;28;20036;-75
2023/08/19 10:51:51;;;;;;;1999.90;999.90;;;31.90;41.20;;;;;;5084588;28;20020;-75
2023/08/19 10:54:38;;;;;;;1999.90;999.90;;;31.60;38.10;;;;;;5084290;28;20090;-75
2023/08/19 10:57:23;;;;;;;1999.90;999.90;;;32.30;37.70;;;;;;5080837;28;20065;-75
2023/08/19 10:59:58;;;;;;;1999.90;999.90;;;32.20;36.50;;;;;;5085157;28;20016;-75
2023/08/19 11:02:29;;;;;;;1999.90;999.90;;;33.40;34.10;;;;;;5087635;28;20490;-75
2023/08/19 11:04:57;;;;;;;1999.90;999.90;;;33.70;34.00;;;;;;5088413;28;20397;-75
2023/08/19 11:07:25;;;;;;;1999.90;999.90;;;34.00;30.60;;;;;;5092601;28;20055;-75
2023/08/19 11:09:54;;;;;;;1999.90;999.90;;;33.10;33.20;;;;;;5089912;28;20028;-75
2023/08/19 11:12:21;;;;;;;1999.90;999.90;;;33.50;34.00;;;;;;5088856;28;20047;-75
2023/08/19 11:14:57;;;;;;;1999.90;999.90;;;34.50;32.50;;;;;;5087603;28;20040;-75
2023/08/19 11:17:33;;;;;;;1999.90;999.90;;;35.10;34.00;;;;;;5086763;28;20024;-75
2023/08/19 11:20:12;;;;;;;1999.90;999.90;;;34.70;30.10;;;;;;5085880;28;20032;-75
2023/08/19 11:22:49;;;;;;;1999.90;999.90;;;34.30;31.40;;;;;;5087992;28;20486;-75
2023/08/19 11:25:15;;;;;;;1999.90;999.90;;;35.20;29.90;;;;;;5089733;28;20122;-75
2023/08/19 11:27:41;;;;;;;1999.90;999.90;;;35.90;26.60;;;;;;5089295;28;20044;-75
2023/08/19 11:30:11;;;;;;;1999.90;999.90;;;36.20;28.40;;;;;;5086976;28;20048;-75
2023/08/19 11:32:37;;;;;;;1999.90;999.90;;;35.90;27.20;;;;;;5084728;28;20032;-75
2023/08/19 11:35:03;;;;;;;1999.90;999.90;;;36.10;29.40;;;;;;5086888;28;20028;-76
2023/08/19 11:37:29;;;;;;;1999.90;999.90;;;36.10;26.90;;;;;;5088382;28;20085;-76
2023/08/19 11:39:55;;;;;;;1999.90;999.90;;;36.30;26.60;;;;;;5087704;28;20502;-75
2023/08/19 11:42:21;;;;;;;1999.90;999.90;;;35.60;25.70;;;;;;5087714;28;20036;-76
2023/08/19 11:44:47;;;;;;;1999.90;999.90;;;36.30;24.80;;;;;;5083799;28;20123;-75
2023/08/19 11:47:14;;;;;;;1999.90;999.90;;;36.60;29.10;;;;;;5088907;28;20068;-76
2023/08/19 11:49:43;;;;;;;1999.90;999.90;;;37.50;26.90;;;;;;5088308;28;20036;-76
2023/08/19 11:52:08;;;;;;;;;;;37.40;24.00;;;;;;5086322;28;20031;-76
2023/08/19 11:54:34;;;;;;;1999.90;999.90;;;36.40;25.20;;;;;;5087985;28;19916;-76
2023/08/19 11:57:02;;;;;;;1999.90;999.90;;;37.10;24.20;;;;;;5086990;28;20110;-76
2023/08/19 11:59:33;;;;;;;1999.90;999.90;;;37.10;27.30;;;;;;5086395;28;20185;-76
2023/08/19 12:02:04;;;;;;;1999.90;999.90;;;37.50;26.00;;;;;;5089408;28;20032;-76